Portada
METAR-TAF:

METAR-TAF

Aeroports :

Timimoun, Algèria

latitud: 29-15N, longitud: 000-17E, altitud: 312 m

Observació

L'informe es va fer fa 29 minuts, a les 13:00 UTC
Vent 13 kt del Sud/Sud-Est
Temperatura 46°C
Pressió 1012 hPa
Visibilitat 10 km o més
sense núvols per sota de 1500 mi sense presència de cumulonimbus.

METAR: DAUT 191300Z 15013KT CAVOK 46/// Q1012

Hora: 14:29 (13:29 UTC)

Pronòstic

L'informe es va fer fa 2 hores i 29 minuts, a les 11:00 UTC
Pronòstic vàlid del 19 a les 12 UTC al 19 a les 21 UTC
Vent 14 kt del Est/Sud-Est
Visibilitat: 8000 m
Probabilitat 30% :
Temporalment
l' 19 a les 12 UTC al 19 a les 15 UTC
Vent 15 kt del Sud-Est amb ràfegues de 25 kt
Visibilitat: 5000 m
torb baixa de sorra

TAF: DAUT 191100Z 1912/1921 12014KT 8000 NSC PROB30 TEMPO 1912/1915 14015G25KT 5000 DRSA

Observacions i pronòstics meteorològics de més de 4000 aeroports (METAR i TAF).

Les estacions disponibles són els punts grocs i vermells al mapa.

Posi el ratolí al punt desitjat per veure el nom de l'estació.

Feu clic per veure les observacions i els pronòstics meteorològics.

Per canviar el mapa: feu clic els botons verds amb una creu de color negre per apropar; al botó verd amb un guió per allunyar la imatge; o en les fletxes verdes per a mapes adjacents.


METAR-TAF: